createdAt,value
2022-11-16T00:02:14.922Z,12.10
2022-11-16T00:04:42.028Z,12.10
2022-11-16T00:07:09.488Z,12.20
2022-11-16T00:09:36.893Z,12.10
2022-11-16T00:12:07.472Z,12.20
2022-11-16T00:14:35.893Z,12.10
2022-11-16T00:17:03.773Z,12.10
2022-11-16T00:19:30.696Z,12.10
2022-11-16T00:21:58.140Z,12.10
2022-11-16T00:24:25.000Z,12.20
2022-11-16T00:26:54.790Z,12.20
2022-11-16T00:29:26.162Z,12.20
2022-11-16T00:31:54.540Z,12.20
2022-11-16T00:34:22.524Z,12.20
2022-11-16T00:36:49.630Z,12.20
2022-11-16T00:39:18.780Z,12.20
2022-11-16T00:41:45.593Z,12.20
2022-11-16T00:44:12.650Z,12.20
2022-11-16T00:46:39.637Z,12.10
2022-11-16T00:49:06.583Z,12.10
2022-11-16T00:51:34.907Z,12.20
2022-11-16T00:54:02.466Z,12.10
2022-11-16T00:56:29.318Z,12.20
2022-11-16T00:58:56.161Z,12.20
2022-11-16T01:01:22.935Z,12.20
2022-11-16T01:03:49.842Z,12.20
2022-11-16T01:06:17.441Z,12.20
2022-11-16T01:08:45.284Z,12.20
2022-11-16T01:11:34.575Z,12.20
2022-11-16T01:14:07.692Z,12.20
2022-11-16T01:16:34.533Z,12.20
2022-11-16T01:19:01.652Z,12.20
2022-11-16T01:21:28.537Z,12.20
2022-11-16T01:23:57.097Z,12.20
2022-11-16T01:26:24.474Z,12.30
2022-11-16T01:28:51.486Z,12.20
2022-11-16T01:31:18.588Z,12.30
2022-11-16T01:33:45.439Z,12.20
2022-11-16T01:36:14.833Z,12.20
2022-11-16T01:38:46.399Z,12.20
2022-11-16T01:41:18.476Z,12.20
2022-11-16T01:44:05.144Z,12.30
2022-11-16T01:46:32.140Z,12.30
2022-11-16T01:49:06.841Z,12.20
2022-11-16T01:51:35.085Z,12.30
2022-11-16T01:54:05.519Z,12.30
2022-11-16T01:56:35.846Z,12.30
2022-11-16T01:59:03.419Z,12.30
2022-11-16T02:01:30.362Z,12.30
2022-11-16T02:03:57.242Z,12.30
2022-11-16T02:06:26.783Z,12.20
2022-11-16T02:09:50.139Z,12.20
2022-11-16T02:12:19.881Z,12.20
2022-11-16T02:14:55.492Z,12.20
2022-11-16T02:17:40.822Z,12.20
2022-11-16T02:20:16.879Z,12.20
2022-11-16T02:23:27.251Z,12.20
2022-11-16T02:26:35.635Z,12.20
2022-11-16T02:29:12.002Z,12.20
2022-11-16T02:31:46.274Z,12.20
2022-11-16T02:34:16.805Z,12.20
2022-11-16T02:36:47.442Z,12.20
2022-11-16T02:39:19.557Z,12.20
2022-11-16T02:41:49.843Z,12.30
2022-11-16T02:44:34.640Z,12.20
2022-11-16T02:47:06.249Z,12.20
2022-11-16T02:49:36.514Z,12.10
2022-11-16T02:52:04.821Z,12.10
2022-11-16T02:54:31.596Z,12.10
2022-11-16T02:57:04.351Z,12.10
2022-11-16T02:59:39.360Z,12.10
2022-11-16T03:02:12.163Z,12.10
2022-11-16T03:04:46.854Z,12.10
2022-11-16T03:07:16.323Z,12.10
2022-11-16T03:09:45.517Z,12.10
2022-11-16T03:12:18.744Z,12.10
2022-11-16T03:14:54.121Z,12.10
2022-11-16T03:17:29.255Z,12.10
2022-11-16T03:20:07.611Z,12.10
2022-11-16T03:22:51.426Z,12.10
2022-11-16T03:25:22.690Z,12.10
2022-11-16T03:28:12.236Z,12.10
2022-11-16T03:30:46.677Z,12.00
2022-11-16T03:33:27.595Z,12.10
2022-11-16T03:36:11.496Z,12.10
2022-11-16T03:38:40.731Z,12.00
2022-11-16T03:41:09.938Z,12.00
2022-11-16T03:43:38.517Z,12.00
2022-11-16T03:46:06.173Z,11.90
2022-11-16T03:48:36.427Z,11.90
2022-11-16T03:51:04.634Z,11.90
2022-11-16T03:53:31.478Z,11.90
2022-11-16T03:55:58.235Z,11.80
2022-11-16T03:58:25.072Z,11.70
2022-11-16T04:00:52.067Z,11.70
2022-11-16T04:03:18.806Z,11.70
2022-11-16T04:06:04.181Z,11.70
2022-11-16T04:08:49.250Z,11.60
2022-11-16T04:11:37.730Z,11.60
2022-11-16T04:14:23.851Z,11.50
2022-11-16T04:17:09.516Z,11.50
2022-11-16T04:19:58.098Z,11.50
2022-11-16T04:22:56.724Z,11.50
2022-11-16T04:25:34.348Z,11.40
2022-11-16T04:28:13.352Z,11.40
2022-11-16T04:31:20.195Z,11.30
2022-11-16T04:34:05.825Z,11.30
2022-11-16T04:36:51.266Z,11.30
2022-11-16T04:39:18.099Z,11.30
2022-11-16T04:42:03.424Z,11.20
2022-11-16T04:44:50.141Z,11.20
2022-11-16T04:47:16.839Z,11.20
2022-11-16T04:49:43.595Z,11.10
2022-11-16T04:52:10.520Z,11.10
2022-11-16T04:54:37.293Z,11.00
2022-11-16T04:57:04.123Z,11.10
2022-11-16T04:59:30.853Z,11.00
2022-11-16T05:02:09.557Z,11.00
2022-11-16T05:04:37.880Z,11.00
2022-11-16T05:07:10.668Z,10.90
2022-11-16T05:09:43.082Z,10.90
2022-11-16T05:12:15.353Z,10.90
2022-11-16T05:14:43.012Z,10.90
2022-11-16T05:17:10.262Z,10.80
2022-11-16T05:19:55.565Z,10.90
2022-11-16T05:22:22.508Z,10.80
2022-11-16T05:24:49.302Z,10.80
2022-11-16T05:27:18.218Z,10.70
2022-11-16T05:29:45.462Z,10.70
2022-11-16T05:32:13.435Z,10.80
2022-11-16T05:34:40.246Z,10.80
2022-11-16T05:37:07.335Z,10.70
2022-11-16T05:39:34.638Z,10.70
2022-11-16T05:42:01.889Z,10.60
2022-11-16T05:44:28.616Z,10.60
2022-11-16T05:46:56.160Z,10.60
2022-11-16T05:49:23.280Z,10.70
2022-11-16T05:51:50.790Z,10.50
2022-11-16T05:54:23.221Z,10.50
2022-11-16T05:56:50.769Z,10.50
2022-11-16T05:59:19.365Z,10.50
2022-11-16T06:01:46.551Z,10.50
2022-11-16T06:04:14.281Z,10.40
2022-11-16T06:06:41.206Z,10.40
2022-11-16T06:09:09.381Z,10.40
2022-11-16T06:11:38.121Z,10.30
2022-11-16T06:14:05.742Z,10.20
2022-11-16T06:16:32.563Z,10.10
2022-11-16T06:19:00.098Z,10.10
2022-11-16T06:21:26.922Z,10.20
2022-11-16T06:23:53.791Z,10.10
2022-11-16T06:26:20.593Z,10.10
2022-11-16T06:28:47.325Z,10.00
2022-11-16T06:31:14.065Z,10.00
2022-11-16T06:33:40.803Z,10.00
2022-11-16T06:36:08.055Z,9.90
2022-11-16T06:38:35.062Z,9.90
2022-11-16T06:41:01.942Z,10.00
2022-11-16T06:43:28.752Z,9.90
2022-11-16T06:45:58.223Z,9.80
2022-11-16T06:48:25.279Z,9.80
2022-11-16T06:50:52.211Z,9.90
2022-11-16T06:53:25.901Z,9.80
2022-11-16T06:55:55.709Z,9.80
2022-11-16T06:58:22.440Z,9.80
2022-11-16T07:00:49.298Z,9.70
2022-11-16T07:03:16.147Z,9.80
2022-11-16T07:05:42.908Z,9.80
2022-11-16T07:08:09.891Z,9.70
2022-11-16T07:10:38.347Z,9.80
2022-11-16T07:13:05.741Z,9.70
2022-11-16T07:15:33.483Z,9.70
2022-11-16T07:18:05.339Z,9.70
2022-11-16T07:20:32.418Z,9.60
2022-11-16T07:23:03.377Z,9.70
2022-11-16T07:25:31.837Z,9.70
2022-11-16T07:27:58.670Z,9.70
2022-11-16T07:30:25.862Z,9.70
2022-11-16T07:32:57.646Z,9.70
2022-11-16T07:35:24.595Z,9.70
2022-11-16T07:37:51.285Z,9.70
2022-11-16T07:40:18.111Z,9.80
2022-11-16T07:42:45.765Z,9.80
2022-11-16T07:45:12.695Z,9.80
2022-11-16T07:47:39.469Z,9.90
2022-11-16T07:50:07.225Z,9.90
2022-11-16T07:52:33.953Z,9.90
2022-11-16T07:55:01.784Z,9.80
2022-11-16T07:57:28.789Z,9.80
2022-11-16T07:59:55.517Z,9.70
2022-11-16T08:02:22.282Z,9.70
2022-11-16T08:04:49.107Z,9.80
2022-11-16T08:07:16.667Z,9.80
2022-11-16T08:09:43.678Z,9.80
2022-11-16T08:12:10.482Z,9.70
2022-11-16T08:14:37.256Z,9.80
2022-11-16T08:17:05.578Z,9.80
2022-11-16T08:19:32.358Z,9.70
2022-11-16T08:21:59.179Z,9.80
2022-11-16T08:24:25.960Z,9.80
2022-11-16T08:26:54.168Z,9.80
2022-11-16T08:29:20.973Z,9.90
2022-11-16T08:31:47.726Z,10.00
2022-11-16T08:34:14.671Z,10.00
2022-11-16T08:36:41.543Z,10.00
2022-11-16T08:39:08.378Z,10.10
2022-11-16T08:41:35.919Z,10.20
2022-11-16T08:44:02.731Z,10.20
2022-11-16T08:46:29.930Z,10.20
2022-11-16T08:48:57.905Z,10.20
2022-11-16T08:51:25.315Z,10.20
2022-11-16T08:53:58.696Z,10.20
2022-11-16T08:56:30.242Z,10.30
2022-11-16T08:58:59.231Z,10.40
2022-11-16T09:01:28.512Z,10.40
2022-11-16T09:03:55.602Z,10.50
2022-11-16T09:06:24.183Z,10.60
2022-11-16T09:08:51.461Z,10.80
2022-11-16T09:11:20.493Z,10.90
2022-11-16T09:13:48.758Z,11.20
2022-11-16T09:16:16.740Z,11.20
2022-11-16T09:18:45.611Z,11.30
2022-11-16T09:21:12.457Z,11.50
2022-11-16T09:23:39.247Z,11.50
2022-11-16T09:26:06.350Z,11.70
2022-11-16T09:28:33.559Z,11.40
2022-11-16T09:31:06.080Z,11.60
2022-11-16T09:33:34.269Z,12.00
2022-11-16T09:36:07.182Z,11.90
2022-11-16T09:39:17.739Z,12.00
2022-11-16T09:41:42.688Z,12.00
2022-11-16T09:44:39.106Z,12.00
2022-11-16T09:47:15.284Z,12.00
2022-11-16T09:49:47.411Z,12.00
2022-11-16T09:52:42.601Z,12.50
2022-11-16T09:55:43.394Z,12.30
2022-11-16T09:58:34.554Z,12.70
2022-11-16T10:01:13.733Z,12.90
2022-11-16T10:03:45.244Z,12.50
2022-11-16T10:06:20.906Z,12.60
2022-11-16T10:08:51.950Z,13.00
2022-11-16T10:11:37.446Z,13.10
2022-11-16T10:14:35.688Z,12.70
2022-11-16T10:17:29.833Z,12.50
2022-11-16T10:20:04.956Z,12.50
2022-11-16T10:23:13.464Z,12.50
2022-11-16T10:25:45.124Z,12.60
2022-11-16T10:28:42.311Z,12.50
2022-11-16T10:31:21.220Z,12.50
2022-11-16T10:33:50.656Z,12.30
2022-11-16T10:36:19.377Z,12.40
2022-11-16T10:38:46.434Z,12.30
2022-11-16T10:41:29.149Z,12.40
2022-11-16T10:43:59.004Z,12.40
2022-11-16T10:46:40.826Z,12.10
2022-11-16T10:49:32.268Z,12.20
2022-11-16T10:51:59.019Z,12.50
2022-11-16T10:54:25.803Z,12.70
2022-11-16T10:57:02.284Z,12.60
2022-11-16T10:59:53.309Z,12.60
2022-11-16T11:02:34.799Z,12.70
2022-11-16T11:05:15.507Z,12.60
2022-11-16T11:07:47.328Z,12.50
2022-11-16T11:10:25.466Z,12.30
2022-11-16T11:13:02.853Z,12.30
2022-11-16T11:15:29.799Z,12.30
2022-11-16T11:18:19.073Z,12.60
2022-11-16T11:20:49.310Z,12.50
2022-11-16T11:23:27.136Z,12.20
2022-11-16T11:25:59.152Z,12.00
2022-11-16T11:28:31.811Z,12.20
2022-11-16T11:31:22.631Z,12.40
2022-11-16T11:33:53.426Z,12.40
2022-11-16T11:36:45.529Z,12.20
2022-11-16T11:39:12.367Z,12.10
2022-11-16T11:41:44.993Z,12.10
2022-11-16T11:44:19.545Z,12.10
2022-11-16T11:49:50.112Z,12.00
2022-11-16T11:52:27.727Z,12.00
2022-11-16T11:54:55.937Z,12.10
2022-11-16T11:57:24.908Z,12.10
2022-11-16T11:59:54.303Z,12.10
2022-11-16T12:02:24.731Z,12.10
2022-11-16T12:05:34.983Z,12.00
2022-11-16T12:08:14.744Z,12.00
2022-11-16T12:11:19.279Z,12.20
2022-11-16T12:14:00.569Z,12.30
2022-11-16T12:16:51.425Z,12.50
2022-11-16T12:19:24.000Z,12.90
2022-11-16T12:21:59.928Z,13.10
2022-11-16T12:24:45.326Z,13.40
2022-11-16T12:27:37.021Z,13.70
2022-11-16T12:30:24.294Z,13.40
2022-11-16T12:33:24.197Z,12.90
2022-11-16T12:36:12.129Z,13.20
2022-11-16T12:38:54.142Z,12.90
2022-11-16T12:41:50.829Z,13.20
2022-11-16T12:44:48.679Z,13.40
2022-11-16T12:47:27.672Z,13.50
2022-11-16T12:50:32.168Z,13.30
2022-11-16T12:53:22.806Z,13.00
2022-11-16T12:55:58.467Z,13.10
2022-11-16T12:58:38.534Z,13.20
2022-11-16T13:01:18.599Z,13.30
2022-11-16T13:04:03.734Z,13.40
2022-11-16T13:06:37.917Z,13.30
2022-11-16T13:09:21.634Z,13.40
2022-11-16T13:11:52.967Z,13.70
2022-11-16T13:14:24.853Z,13.90
2022-11-16T13:16:52.540Z,13.60
2022-11-16T13:19:19.905Z,13.50
2022-11-16T13:22:05.581Z,13.10
2022-11-16T13:24:41.155Z,13.00
2022-11-16T13:27:34.790Z,12.90
2022-11-16T13:30:23.288Z,12.80
2022-11-16T13:33:11.052Z,12.90
2022-11-16T13:35:38.702Z,13.00
2022-11-16T13:38:11.094Z,13.00
2022-11-16T13:40:37.909Z,12.90
2022-11-16T13:43:10.771Z,12.90
2022-11-16T13:45:54.427Z,13.00
2022-11-16T13:48:40.848Z,12.90
2022-11-16T13:51:17.311Z,13.00
2022-11-16T13:56:51.416Z,13.20
2022-11-16T13:59:25.274Z,13.20
2022-11-16T14:01:58.000Z,13.20
2022-11-16T14:04:53.370Z,13.20
2022-11-16T14:07:46.338Z,13.30
2022-11-16T14:10:33.076Z,13.20
2022-11-16T14:13:01.089Z,13.10
2022-11-16T14:15:36.386Z,13.10
2022-11-16T14:18:35.142Z,13.00
2022-11-16T14:21:16.923Z,12.90
2022-11-16T14:24:13.752Z,13.00
2022-11-16T14:26:46.420Z,12.90
2022-11-16T14:29:37.128Z,13.00
2022-11-16T14:32:16.047Z,12.80
2022-11-16T14:34:46.792Z,12.90
2022-11-16T14:37:21.472Z,12.80
2022-11-16T14:39:50.289Z,12.90
2022-11-16T14:43:09.535Z,13.00
2022-11-16T14:45:35.586Z,13.00
2022-11-16T14:48:17.387Z,12.90
2022-11-16T14:50:47.701Z,12.90
2022-11-16T14:53:19.364Z,12.90
2022-11-16T14:55:46.290Z,12.80
2022-11-16T14:58:20.744Z,12.90
2022-11-16T15:01:06.165Z,12.80
2022-11-16T15:03:41.993Z,12.80
2022-11-16T15:06:09.049Z,12.80
2022-11-16T15:08:43.568Z,12.70
2022-11-16T15:11:21.979Z,12.70
2022-11-16T15:13:49.839Z,12.60
2022-11-16T15:16:20.065Z,12.60
2022-11-16T15:19:01.744Z,12.70
2022-11-16T15:21:29.469Z,12.70
2022-11-16T15:26:43.440Z,12.70
2022-11-16T15:29:16.692Z,12.70
2022-11-16T15:31:44.189Z,12.60
2022-11-16T15:34:17.395Z,12.50
2022-11-16T15:36:44.397Z,12.30
2022-11-16T15:39:21.932Z,12.40
2022-11-16T15:41:49.418Z,12.30
2022-11-16T15:44:19.398Z,12.30
2022-11-16T15:46:50.148Z,12.20
2022-11-16T15:49:29.391Z,12.20
2022-11-16T15:51:58.650Z,12.20
2022-11-16T15:54:53.846Z,12.20
2022-11-16T15:57:22.951Z,12.20
2022-11-16T15:59:57.486Z,12.20
2022-11-16T16:02:27.660Z,12.20
2022-11-16T16:04:54.526Z,12.10
2022-11-16T16:07:41.988Z,12.10
2022-11-16T16:10:26.929Z,12.00
2022-11-16T16:12:59.107Z,11.90
2022-11-16T16:15:34.231Z,11.80
2022-11-16T16:18:02.791Z,11.70
2022-11-16T16:20:31.433Z,11.80
2022-11-16T16:23:08.155Z,11.80
2022-11-16T16:25:36.078Z,11.80
2022-11-16T16:28:03.608Z,11.70
2022-11-16T16:30:31.611Z,11.70
2022-11-16T16:32:58.669Z,11.60
2022-11-16T16:35:26.866Z,11.60
2022-11-16T16:38:01.214Z,11.60
2022-11-16T16:40:29.063Z,11.50
2022-11-16T16:42:56.679Z,11.40
2022-11-16T16:45:35.095Z,11.50
2022-11-16T16:48:01.855Z,11.40
2022-11-16T16:50:28.698Z,11.40
2022-11-16T16:52:55.501Z,11.40
2022-11-16T16:55:22.383Z,11.30
2022-11-16T16:57:49.239Z,11.10
2022-11-16T17:00:16.549Z,11.10
2022-11-16T17:02:43.491Z,11.10
2022-11-16T17:05:10.425Z,11.10
2022-11-16T17:07:37.208Z,11.10
2022-11-16T17:10:04.308Z,11.00
2022-11-16T17:12:31.099Z,11.10
2022-11-16T17:14:57.947Z,11.00
2022-11-16T17:17:24.753Z,11.00
2022-11-16T17:19:52.264Z,11.00
2022-11-16T17:22:20.113Z,11.00
2022-11-16T17:24:47.248Z,10.90
2022-11-16T17:27:14.062Z,10.90
2022-11-16T17:29:40.817Z,10.80
2022-11-16T17:32:07.671Z,10.90
2022-11-16T17:34:34.452Z,10.80
2022-11-16T17:37:01.201Z,10.80
2022-11-16T17:39:27.930Z,10.80
2022-11-16T17:41:54.768Z,10.80
2022-11-16T17:44:22.264Z,10.80
2022-11-16T17:46:49.408Z,10.70
2022-11-16T17:49:16.129Z,10.70
2022-11-16T17:51:42.918Z,10.60
2022-11-16T17:54:09.696Z,10.60
2022-11-16T17:56:36.630Z,10.50
2022-11-16T17:59:03.438Z,10.60
2022-11-16T18:01:30.441Z,10.60
2022-11-16T18:03:57.495Z,10.60
2022-11-16T18:06:25.322Z,10.50
2022-11-16T18:08:53.587Z,10.60
2022-11-16T18:11:21.527Z,10.70
2022-11-16T18:13:56.180Z,10.60
2022-11-16T18:16:25.550Z,10.60
2022-11-16T18:19:05.051Z,10.60
2022-11-16T18:21:37.758Z,10.60
2022-11-16T18:24:04.744Z,10.60
2022-11-16T18:26:31.710Z,10.50
2022-11-16T18:28:58.593Z,10.60
2022-11-16T18:31:25.823Z,10.50
2022-11-16T18:33:53.014Z,10.60
2022-11-16T18:36:20.939Z,10.50
2022-11-16T18:38:48.126Z,10.50
2022-11-16T18:41:22.659Z,10.50
2022-11-16T18:43:54.848Z,10.50
2022-11-16T18:46:27.794Z,10.50
2022-11-16T18:48:55.396Z,10.50
2022-11-16T18:51:23.758Z,10.50
2022-11-16T18:53:50.946Z,10.50
2022-11-16T18:56:18.516Z,10.40
2022-11-16T18:58:53.465Z,10.50
2022-11-16T19:01:22.959Z,10.40
2022-11-16T19:03:50.951Z,10.50
2022-11-16T19:06:18.321Z,10.40
2022-11-16T19:08:51.755Z,10.40
2022-11-16T19:11:22.791Z,10.50
2022-11-16T19:13:53.546Z,10.40
2022-11-16T19:16:20.625Z,10.40
2022-11-16T19:18:47.415Z,10.50
2022-11-16T19:21:16.002Z,10.50
2022-11-16T19:23:45.016Z,10.40
2022-11-16T19:26:13.694Z,10.40
2022-11-16T19:28:42.535Z,10.40
2022-11-16T19:31:20.842Z,10.50
2022-11-16T19:33:47.709Z,10.50
2022-11-16T19:36:19.241Z,10.40
2022-11-16T19:38:47.493Z,10.30
2022-11-16T19:41:16.282Z,10.30
2022-11-16T19:43:43.133Z,10.40
2022-11-16T19:46:12.467Z,10.40
2022-11-16T19:48:39.509Z,10.40
2022-11-16T19:51:14.663Z,10.40
2022-11-16T19:53:42.033Z,10.30
2022-11-16T19:56:13.469Z,10.40
2022-11-16T19:58:40.777Z,10.40
2022-11-16T20:01:11.385Z,10.40
2022-11-16T20:03:38.799Z,10.40
2022-11-16T20:06:19.948Z,10.30
2022-11-16T20:08:49.393Z,10.40
2022-11-16T20:11:21.955Z,10.30
2022-11-16T20:13:50.116Z,10.40
2022-11-16T20:16:18.753Z,10.40
2022-11-16T20:18:46.375Z,10.40
2022-11-16T20:21:18.391Z,10.40
2022-11-16T20:23:45.598Z,10.50
2022-11-16T20:26:13.830Z,10.50
2022-11-16T20:28:42.629Z,10.50
2022-11-16T20:31:12.503Z,10.50
2022-11-16T20:33:40.282Z,10.50
2022-11-16T20:36:11.712Z,10.50
2022-11-16T20:38:39.458Z,10.50
2022-11-16T20:41:18.656Z,10.50
2022-11-16T20:43:46.581Z,10.50
2022-11-16T20:46:15.341Z,10.60
2022-11-16T20:48:42.916Z,10.60
2022-11-16T20:51:12.725Z,10.50
2022-11-16T20:53:39.771Z,10.60
2022-11-16T20:56:07.737Z,10.60
2022-11-16T20:58:35.144Z,10.60
2022-11-16T21:01:05.657Z,10.50
2022-11-16T21:03:32.998Z,10.50
2022-11-16T21:06:00.050Z,10.50
2022-11-16T21:08:27.381Z,10.60
2022-11-16T21:10:54.361Z,10.60
2022-11-16T21:13:39.780Z,10.50
2022-11-16T21:16:11.357Z,10.60
2022-11-16T21:18:39.649Z,10.60
2022-11-16T21:21:09.357Z,10.50
2022-11-16T21:23:37.392Z,10.50
2022-11-16T21:26:07.016Z,10.50
2022-11-16T21:28:34.122Z,10.60
2022-11-16T21:31:06.142Z,10.60
2022-11-16T21:33:33.669Z,10.70
2022-11-16T21:36:05.230Z,10.70
2022-11-16T21:38:32.667Z,10.70
2022-11-16T21:40:59.933Z,10.80
2022-11-16T21:43:27.303Z,10.70
2022-11-16T21:46:02.080Z,10.70
2022-11-16T21:48:33.456Z,10.60
2022-11-16T21:51:05.281Z,10.60
2022-11-16T21:53:32.767Z,10.60
2022-11-16T21:56:00.187Z,10.60
2022-11-16T21:58:27.391Z,10.60
2022-11-16T22:00:58.824Z,10.50
2022-11-16T22:03:27.708Z,10.50
2022-11-16T22:06:18.363Z,10.50
2022-11-16T22:08:46.296Z,10.50
2022-11-16T22:11:14.092Z,10.40
2022-11-16T22:13:41.811Z,10.50
2022-11-16T22:16:15.184Z,10.50
2022-11-16T22:18:42.539Z,10.40
2022-11-16T22:21:10.075Z,10.40
2022-11-16T22:23:37.658Z,10.40
2022-11-16T22:26:07.207Z,10.40
2022-11-16T22:28:34.681Z,10.40
2022-11-16T22:31:03.206Z,10.40
2022-11-16T22:33:30.328Z,10.30
2022-11-16T22:35:57.285Z,10.30
2022-11-16T22:38:24.446Z,10.40
2022-11-16T22:40:57.881Z,10.40
2022-11-16T22:43:27.167Z,10.30
2022-11-16T22:46:02.700Z,10.30
2022-11-16T22:48:34.238Z,10.30
2022-11-16T22:51:06.807Z,10.30
2022-11-16T22:53:34.156Z,10.40
2022-11-16T22:56:06.606Z,10.40
2022-11-16T22:58:33.804Z,10.40
2022-11-16T23:01:00.824Z,10.40
2022-11-16T23:03:28.140Z,10.40
2022-11-16T23:05:55.086Z,10.40
2022-11-16T23:08:24.882Z,10.50
2022-11-16T23:11:22.435Z,10.40
2022-11-16T23:14:08.157Z,10.40
2022-11-16T23:16:35.480Z,10.40
2022-11-16T23:19:02.272Z,10.40
2022-11-16T23:21:47.644Z,10.40
2022-11-16T23:24:34.128Z,10.40
2022-11-16T23:27:22.698Z,10.50
2022-11-16T23:29:49.867Z,10.50
2022-11-16T23:32:16.680Z,10.50
2022-11-16T23:34:43.447Z,10.40
2022-11-16T23:37:10.337Z,10.50
2022-11-16T23:39:37.059Z,10.50
2022-11-16T23:42:22.665Z,10.50
2022-11-16T23:44:49.510Z,10.40
2022-11-16T23:47:16.349Z,10.50
2022-11-16T23:49:43.189Z,10.50
2022-11-16T23:52:10.402Z,10.50
2022-11-16T23:54:37.306Z,10.50
2022-11-16T23:57:05.247Z,10.50
2022-11-16T23:59:32.690Z,10.50
